Other Surface Observations
Issued by NWS Missoula, MT

Home | Current Version | Previous Version | Text Only | Print | Product List | Glossary On
Versions: 1 2 3 4 5 6 7 8 9 10 11 12 13 14 15 16 17 18 19 20 21 22 23 24 25 26 27 28 29 30 31 32 33 34 35 36 37 38 39 40 41 42 43 44 45 46 47 48 49 50
038
SXUS55 KMSO 091013
OSOMSO
MONTANA AWOS SUMMARY
NATIONAL WEATHER SERVICE MISSOULA MT
312 AM MST FRI DEC 9 2016

Montana AWOS Reports

LAUREL      |K6S8 090955Z AUTO 01004KT 3SM HZ M16/M21 A3022 RMK AO1 T11551210
ROUNDUP     |KRPX 090955Z AUTO 01006KT 5SM HZ M19/M24 A3020 RMK AO1 T11881238




USA.gov is the U.S. government's official web portal to all federal, state and local government web resources and services.